Startpagina
METAR-TAF:

METAR-TAF

Vliegvelden :

Militair vliegvled Cameri

Novara, Italië

breedte: 45-31N, lengte: 008-40E, hoogte: 178 m

Actueel weer

Dit bericht is 8 uur en het 52 minuten geleden gemaakt, om 17:55 UTC
Weinig wind
Temperatuur 18°C
Vochtigheid 64%
Druk 1023 hPa
Zicht 10 km of meer
geen wolken onder 1500 m en geen cumulonimbus

METAR: LIMN 201755Z 00000KT CAVOK 18/11 Q1023 RMK SKC VIS MIN 9999 BLU

Tijdstip: 04:47 (02:47 UTC)

Verwachting

Dit bericht is 9 uur en het 47 minuten geleden gemaakt, om 17:00 UTC
Verwachting geldig van 20 om 18 UTC tot 21 om 03 UTC
Wind 6 kt uit het oosten
Zicht 10 km of meer
geen wolken onder 1500 m en geen cumulonimbus

TAF: LIMN 201700Z 2018/2103 10006KT CAVOK

Waarnemingen en weersverwachtingen van meer dan 4000 vliegvelden (METAR en TAF).

De beschikbare stations zijn de gele en rode punten op de kaart.

Ga met uw muis naar het station om de naam te zien.

Klik dan om waarnemingen en weersverwachtingen te zien.

kaart wijzigen: klik op de groene knoppen met een zwart kruis om in te zoomen, op de groene knop met een streepje om uit te zoomen of op de groene pijlen voor aangrenzende kaarten.


METAR-TAF: